Time;durP1;ratioP1;P1;durP2;ratioP2;P2;SDS_P1;SDS_P2;PMS_P1;PMS_P2;Temp;Humidity;BMP_temperature;BMP_pressure;BME280_temperature;BME280_humidity;BME280_pressure;Samples;Min_cycle;Max_cycle;Signal;HPM_P1;HPM_P2
2022/04/06 00:01:37;;;;;;;;;;;;;;;8.99;100.00;99067.66;5098524;28;19912;-78
2022/04/06 00:04:03;;;;;;;;;;;;;;;9.01;100.00;99067.69;5098017;28;19916;-78
2022/04/06 00:06:28;;;;;;;;;;;;;;;8.93;100.00;99073.72;5098635;28;19934;-78
2022/04/06 00:08:54;;;;;;;;;;;;;;;8.94;100.00;99061.47;5116266;28;19916;-78
2022/04/06 00:11:19;;;;;;;;;;;;;;;8.92;100.00;99057.94;5098109;28;19919;-77
2022/04/06 00:13:44;;;;;;;;;;;;;;;8.92;100.00;99042.19;5098464;28;19923;-77
2022/04/06 00:16:10;;;;;;;;;;;;;;;8.93;100.00;99049.19;5097830;28;19916;-77
2022/04/06 00:18:35;;;;;;;;;;;;;;;8.94;100.00;99043.97;5116080;28;19915;-78
2022/04/06 00:21:00;;;;;;;;;;;;;;;8.91;100.00;99037.81;5115926;28;19922;-77
2022/04/06 00:23:26;;;;;;;;;;;;;;;8.94;100.00;99025.59;5098057;28;20003;-79
2022/04/06 00:25:52;;;;;;;;;;;;;;;9.01;100.00;99017.78;5094938;28;19919;-77
2022/04/06 00:28:17;;;;;;;;;;;;;;;8.97;100.00;99020.38;5097864;28;19915;-77
2022/04/06 00:30:42;;;;;;;;;;;;;;;8.94;100.00;99027.34;5098026;28;19947;-78
2022/04/06 00:33:10;;;;;;;;;;;;;;;8.91;100.00;99028.16;5097582;28;19923;-79
2022/04/06 00:35:35;;;;;;;;;;;;;;;8.88;100.00;99020.25;5097618;28;19916;-80
2022/04/06 00:38:02;;;;;;;;;;;;;;;8.92;100.00;99021.19;5116327;28;19923;-79
2022/04/06 00:40:28;;;;;;;;;;;;;;;8.94;100.00;99022.97;5097888;28;19928;-80
2022/04/06 00:42:55;;;;;;;;;;;;;;;8.98;100.00;99016.03;5097412;28;19920;-80
2022/04/06 00:45:21;;;;;;;;;;;;;;;8.97;100.00;99019.50;5131815;27;19920;-80
2022/04/06 00:47:47;;;;;;;;;;;;;;;8.98;100.00;99018.66;5097319;28;19916;-80
2022/04/06 00:50:12;;;;;;;;;;;;;;;8.99;100.00;99023.03;5097245;28;20340;-79
2022/04/06 00:52:39;;;;;;;;;;;;;;;8.98;100.00;99024.78;5095407;28;19923;-79
2022/04/06 00:55:06;;;;;;;;;;;;;;;8.99;100.00;99033.53;5096006;28;19958;-80
2022/04/06 00:57:33;;;;;;;;;;;;;;;8.98;100.00;99039.66;5097351;28;19951;-79
2022/04/06 00:59:59;;;;;;;;;;;;;;;8.97;100.00;99051.88;5097167;28;20267;-79
2022/04/06 01:02:24;;;;;;;;;;;;;;;9.00;100.00;99055.44;5097336;28;19916;-78
2022/04/06 01:04:54;;;;;;;;;;;;;;;8.97;100.00;99069.38;5096884;28;19923;-80
2022/04/06 01:07:20;;;;;;;;;;;;;;;8.96;100.00;99063.28;5097464;28;19969;-79
2022/04/06 01:09:46;;;;;;;;;;;;;;;8.95;100.00;99076.38;5114762;28;19916;-77
2022/04/06 01:12:13;;;;;;;;;;;;;;;8.97;100.00;99093.00;5096792;28;19923;-80
2022/04/06 01:14:39;;;;;;;;;;;;;;;8.94;100.00;99099.09;5096428;28;19927;-78
2022/04/06 01:17:07;;;;;;;;;;;;;;;8.92;100.00;99102.56;5114778;28;19915;-78
2022/04/06 01:19:33;;;;;;;;;;;;;;;8.90;100.00;99099.03;5115489;28;19923;-78
2022/04/06 01:21:59;;;;;;;;;;;;;;;8.87;100.00;99092.00;5115118;28;19918;-79
2022/04/06 01:24:24;;;;;;;;;;;;;;;8.83;100.00;99095.44;5096945;28;19920;-78
2022/04/06 01:26:50;;;;;;;;;;;;;;;8.79;100.00;99096.25;5113580;28;19918;-78
2022/04/06 01:29:15;;;;;;;;;;;;;;;8.80;100.00;99090.16;5096454;28;19945;-78
2022/04/06 01:31:40;;;;;;;;;;;;;;;8.76;100.00;99099.72;5094640;28;19958;-78
2022/04/06 01:34:07;;;;;;;;;;;;;;;8.76;100.00;99091.84;5078517;28;19927;-78
2022/04/06 01:36:32;;;;;;;;;;;;;;;8.73;100.00;99093.53;5097057;28;19923;-78
2022/04/06 01:38:57;;;;;;;;;;;;;;;8.75;100.00;99091.81;5114417;28;19916;-78
2022/04/06 01:41:29;;;;;;;;;;;;;;;8.72;100.00;99078.66;5096341;28;20389;-78
2022/04/06 01:44:07;;;;;;;;;;;;;;;8.75;100.00;99071.69;5079496;28;19923;-78
2022/04/06 01:46:33;;;;;;;;;;;;;;;8.72;100.00;99079.53;5076425;28;19947;-78
2022/04/06 01:54:26;;;;;;;;;;;;;;;8.73;100.00;99096.16;5115062;28;19969;-79
2022/04/06 01:56:51;;;;;;;;;;;;;;;8.71;100.00;99101.38;5097082;28;19924;-79
2022/04/06 01:59:17;;;;;;;;;;;;;;;8.73;100.00;99110.16;5096438;28;19916;-78
2022/04/06 02:01:43;;;;;;;;;;;;;;;8.72;100.00;99125.91;5096192;28;20340;-78
2022/04/06 02:04:25;;;;;;;;;;;;;;;8.70;100.00;99127.59;5114356;28;20054;-78
2022/04/06 02:06:50;;;;;;;;;;;;;;;8.70;100.00;99140.72;5132440;27;20082;-78
2022/04/06 02:09:16;;;;;;;;;;;;;;;8.70;100.00;99151.22;5098260;28;19923;-79
2022/04/06 02:11:42;;;;;;;;;;;;;;;8.70;100.00;99157.34;5098994;28;20355;-79
2022/04/06 02:14:08;;;;;;;;;;;;;;;8.66;100.00;99159.91;5096771;28;19920;-79
2022/04/06 02:16:36;;;;;;;;;;;;;;;8.69;100.00;99176.56;5111853;28;20376;-78
2022/04/06 02:19:02;;;;;;;;;;;;;;;8.68;100.00;99193.16;5114002;28;19926;-78
2022/04/06 02:21:27;;;;;;;;;;;;;;;8.68;100.00;99200.16;5096059;28;19984;-78
2022/04/06 02:23:54;;;;;;;;;;;;;;;8.60;100.00;99200.91;5095205;28;20375;-78
2022/04/06 02:26:19;;;;;;;;;;;;;;;8.58;100.00;99204.38;5096265;28;20002;-78
2022/04/06 02:28:45;;;;;;;;;;;;;;;8.58;100.00;99210.50;5095740;28;20010;-78
2022/04/06 02:31:10;;;;;;;;;;;;;;;8.58;100.00;99220.13;5095753;28;20455;-78
2022/04/06 02:33:37;;;;;;;;;;;;;;;8.61;100.00;99217.56;5113752;28;19922;-78
2022/04/06 02:36:03;;;;;;;;;;;;;;;8.63;100.00;99224.56;5110979;28;19919;-79
2022/04/06 02:38:29;;;;;;;;;;;;;;;8.62;100.00;99241.19;5080873;28;19927;-77
2022/04/06 02:40:54;;;;;;;;;;;;;;;8.61;100.00;99246.41;5099430;28;19920;-78
2022/04/06 02:43:25;;;;;;;;;;;;;;;8.63;100.00;99256.06;5099398;28;20061;-79
2022/04/06 02:45:50;;;;;;;;;;;;;;;8.53;100.00;99263.72;5099718;28;19916;-77
2022/04/06 02:48:18;;;;;;;;;;;;;;;8.39;100.00;99266.97;5100068;28;19938;-78
2022/04/06 02:50:43;;;;;;;;;;;;;;;8.31;100.00;99270.28;5099196;28;20287;-79
2022/04/06 02:53:10;;;;;;;;;;;;;;;8.25;100.00;99273.69;5082555;28;19923;-78
2022/04/06 02:55:36;;;;;;;;;;;;;;;8.21;100.00;99283.22;5100350;28;19915;-80
2022/04/06 02:58:01;;;;;;;;;;;;;;;8.15;100.00;99280.47;5117403;28;19916;-78
2022/04/06 03:00:26;;;;;;;;;;;;;;;8.13;100.00;99283.91;5098961;28;19965;-80
2022/04/06 03:02:52;;;;;;;;;;;;;;;8.12;100.00;99279.53;5098041;28;19935;-80
2022/04/06 03:05:18;;;;;;;;;;;;;;;8.13;100.00;99273.44;5080755;28;19928;-79
2022/04/06 03:07:43;;;;;;;;;;;;;;;8.17;100.00;99276.16;5098860;28;19969;-79
2022/04/06 03:10:08;;;;;;;;;;;;;;;8.18;100.00;99267.41;5099201;28;19923;-79
2022/04/06 03:12:34;;;;;;;;;;;;;;;8.15;100.00;99275.22;5117956;28;20283;-79
2022/04/06 03:15:01;;;;;;;;;;;;;;;8.21;100.00;99279.72;5098324;28;19923;-79
2022/04/06 03:17:26;;;;;;;;;;;;;;;8.14;100.00;99270.84;5117464;28;19923;-79
2022/04/06 03:19:51;;;;;;;;;;;;;;;8.16;100.00;99271.75;5082249;28;19919;-79
2022/04/06 03:22:19;;;;;;;;;;;;;;;8.13;100.00;99265.56;5116615;28;19920;-79
2022/04/06 03:24:46;;;;;;;;;;;;;;;8.12;100.00;99274.28;5098360;28;19916;-79
2022/04/06 03:27:12;;;;;;;;;;;;;;;8.05;100.00;99279.41;5095550;28;19920;-80
2022/04/06 03:29:37;;;;;;;;;;;;;;;8.07;100.00;99284.66;5117136;28;20279;-79
2022/04/06 03:32:02;;;;;;;;;;;;;;;8.09;100.00;99282.94;5082008;28;19981;-79
2022/04/06 03:34:36;;;;;;;;;;;;;;;8.14;100.00;99288.28;5116705;28;19916;-79
2022/04/06 03:37:02;;;;;;;;;;;;;;;8.17;100.00;99276.16;5099087;28;19915;-81
2022/04/06 03:39:27;;;;;;;;;;;;;;;8.26;100.00;99285.91;5098739;28;19927;-81
2022/04/06 03:41:53;;;;;;;;;;;;;;;8.27;100.00;99272.84;5099013;28;19915;-81
2022/04/06 03:44:21;;;;;;;;;;;;;;;8.23;100.00;99271.03;5099352;28;19912;-81
2022/04/06 03:46:46;;;;;;;;;;;;;;;8.26;100.00;99265.84;5099137;28;19915;-81
2022/04/06 03:49:11;;;;;;;;;;;;;;;8.27;100.00;99256.22;5098430;28;20570;-82
2022/04/06 03:51:37;;;;;;;;;;;;;;;8.30;100.00;99253.66;5116152;28;20363;-79
2022/04/06 03:54:06;;;;;;;;;;;;;;;8.29;100.00;99228.28;5098299;28;19915;-80
2022/04/06 03:56:32;;;;;;;;;;;;;;;8.31;100.00;99228.31;5117599;28;19954;-80
2022/04/06 03:58:57;;;;;;;;;;;;;;;8.30;100.00;99203.84;5116960;28;19968;-81
2022/04/06 04:01:23;;;;;;;;;;;;;;;8.39;100.00;99208.34;5098476;28;20370;-79
2022/04/06 04:03:56;;;;;;;;;;;;;;;8.35;100.00;99196.94;5098492;28;20283;-80
2022/04/06 04:06:22;;;;;;;;;;;;;;;8.34;100.00;99183.78;5098340;28;20594;-80
2022/04/06 04:08:48;;;;;;;;;;;;;;;8.35;100.00;99178.56;5116767;28;19923;-80
2022/04/06 04:11:13;;;;;;;;;;;;;;;8.30;100.00;99182.88;5116289;28;20371;-77
2022/04/06 04:13:38;;;;;;;;;;;;;;;8.35;100.00;99169.84;5116186;28;19959;-79
2022/04/06 04:16:04;;;;;;;;;;;;;;;8.29;100.00;99165.34;5116543;28;19920;-77
2022/04/06 04:18:29;;;;;;;;;;;;;;;8.24;100.00;99162.66;5081410;28;19962;-77
2022/04/06 04:21:32;;;;;;;;;;;;;;;8.20;100.00;99168.72;5098406;28;20410;-77
2022/04/06 04:23:41;;;;;;;;;;;;;;;8.20;100.00;99168.72;5115761;28;19919;-78
2022/04/06 04:26:06;;;;;;;;;;;;;;;8.21;100.00;99172.19;5116340;28;19916;-78
2022/04/06 04:28:33;;;;;;;;;;;;;;;8.22;100.00;99161.75;5116094;28;20330;-78
2022/04/06 04:30:58;;;;;;;;;;;;;;;8.25;100.00;99160.94;5097487;28;20659;-79
2022/04/06 04:33:24;;;;;;;;;;;;;;;8.23;100.00;99155.66;5114654;28;19920;-78
2022/04/06 04:35:49;;;;;;;;;;;;;;;8.26;100.00;99158.34;5097366;28;19919;-79
2022/04/06 04:38:15;;;;;;;;;;;;;;;8.26;100.00;99149.56;5096968;28;19923;-77
2022/04/06 04:40:40;;;;;;;;;;;;;;;8.30;100.00;99150.50;5095184;28;19928;-78
2022/04/06 04:43:06;;;;;;;;;;;;;;;8.29;100.00;99148.75;5115319;28;19919;-79
2022/04/06 04:45:31;;;;;;;;;;;;;;;8.30;100.00;99146.16;5094251;28;20393;-78
2022/04/06 04:47:57;;;;;;;;;;;;;;;8.27;100.00;99141.72;5097164;28;19919;-79
2022/04/06 04:50:23;;;;;;;;;;;;;;;8.34;100.00;99133.97;5098095;28;19922;-78
2022/04/06 04:52:48;;;;;;;;;;;;;;;8.35;100.00;99128.75;5115836;28;19919;-78
2022/04/06 04:55:14;;;;;;;;;;;;;;;8.35;100.00;99139.22;5097285;28;19927;-79
2022/04/06 04:57:39;;;;;;;;;;;;;;;8.36;100.00;99130.53;5097707;28;19924;-79
2022/04/06 05:00:06;;;;;;;;;;;;;;;8.34;100.00;99136.59;5097426;28;19970;-80
2022/04/06 05:02:31;;;;;;;;;;;;;;;8.34;100.00;99134.84;5097448;28;19923;-80
2022/04/06 05:04:56;;;;;;;;;;;;;;;8.36;100.00;99135.75;5114891;28;20333;-79
2022/04/06 05:07:22;;;;;;;;;;;;;;;8.38;100.00;99127.91;5115621;28;20363;-79
2022/04/06 05:09:49;;;;;;;;;;;;;;;8.37;100.00;99113.91;5097577;28;19916;-79
2022/04/06 05:12:15;;;;;;;;;;;;;;;8.36;100.00;99109.53;5096788;28;19994;-79
2022/04/06 05:14:42;;;;;;;;;;;;;;;8.37;100.00;99108.66;5094183;28;20023;-79
2022/04/06 05:17:07;;;;;;;;;;;;;;;8.37;100.00;99115.66;5095573;28;19915;-80
2022/04/06 05:19:34;;;;;;;;;;;;;;;8.38;100.00;99101.69;5094793;28;19926;-79
2022/04/06 05:21:59;;;;;;;;;;;;;;;8.37;100.00;99105.16;5095139;28;19919;-79
2022/04/06 05:24:28;;;;;;;;;;;;;;;8.36;100.00;99096.44;5097301;28;19919;-79
2022/04/06 05:26:53;;;;;;;;;;;;;;;8.40;100.00;99094.72;5096681;28;19958;-79
2022/04/06 05:29:18;;;;;;;;;;;;;;;8.40;100.00;99092.09;5096368;28;19920;-78
2022/04/06 05:31:43;;;;;;;;;;;;;;;8.43;100.00;99105.25;5115062;28;19916;-79
2022/04/06 05:34:14;;;;;;;;;;;;;;;8.44;100.00;99113.19;5095995;28;19969;-80
2022/04/06 05:36:39;;;;;;;;;;;;;;;8.43;100.00;99116.66;5096528;28;19916;-79
2022/04/06 05:39:05;;;;;;;;;;;;;;;8.49;100.00;99121.13;5079545;28;20359;-78
2022/04/06 05:41:30;;;;;;;;;;;;;;;8.48;100.00;99129.84;5133474;27;19920;-78
2022/04/06 05:43:58;;;;;;;;;;;;;;;8.55;100.00;99141.34;5099277;27;20358;-79
2022/04/06 05:46:23;;;;;;;;;;;;;;;8.53;100.00;99145.69;5117266;27;19911;-78
2022/04/06 05:48:48;;;;;;;;;;;;;;;8.55;100.00;99157.97;5135238;27;20018;-78
2022/04/06 05:51:14;;;;;;;;;;;;;;;8.55;100.00;99157.09;5116368;27;19912;-78
2022/04/06 05:53:46;;;;;;;;;;;;;;;8.59;100.00;99174.63;5099908;27;19920;-78
2022/04/06 05:56:12;;;;;;;;;;;;;;;8.60;100.00;99166.78;5116324;27;19927;-78
2022/04/06 05:58:37;;;;;;;;;;;;;;;8.65;100.00;99189.63;5116792;27;19923;-78
2022/04/06 06:01:02;;;;;;;;;;;;;;;8.69;100.00;99189.69;5115935;27;19920;-78
2022/04/06 06:03:29;;;;;;;;;;;;;;;8.65;100.00;99200.13;5116353;27;19919;-78
2022/04/06 06:05:55;;;;;;;;;;;;;;;8.66;100.00;99212.38;5114145;27;19915;-77
2022/04/06 06:08:21;;;;;;;;;;;;;;;8.67;100.00;99219.38;5116641;27;19916;-78
2022/04/06 06:10:47;;;;;;;;;;;;;;;8.68;100.00;99234.28;5115937;27;20025;-77
2022/04/06 06:13:14;;;;;;;;;;;;;;;8.69;100.00;99239.56;5115381;27;19919;-77
2022/04/06 06:15:40;;;;;;;;;;;;;;;8.72;100.00;99243.97;5116447;27;19923;-78
2022/04/06 06:18:08;;;;;;;;;;;;;;;8.75;100.00;99260.66;5134038;27;19916;-80
2022/04/06 06:20:34;;;;;;;;;;;;;;;8.75;100.00;99268.53;5115561;28;20366;-79
2022/04/06 06:23:00;;;;;;;;;;;;;;;8.79;100.00;99262.50;5100003;28;20006;-80
2022/04/06 06:25:26;;;;;;;;;;;;;;;8.82;100.00;99259.03;5096454;27;19923;-81
2022/04/06 06:27:52;;;;;;;;;;;;;;;8.93;100.00;99265.34;5115733;28;19919;-80
2022/04/06 06:30:17;;;;;;;;;;;;;;;8.86;100.00;99258.22;5116285;28;20428;-81
2022/04/06 06:32:42;;;;;;;;;;;;;;;8.90;100.00;99265.31;5115786;27;20397;-82
2022/04/06 06:35:08;;;;;;;;;;;;;;;8.96;100.00;99272.38;5134100;27;19915;-79
2022/04/06 06:37:34;;;;;;;;;;;;;;;8.93;100.00;99265.34;5116141;28;19968;-79
2022/04/06 06:39:59;;;;;;;;;;;;;;;9.03;100.00;99255.88;5098446;28;20034;-80
2022/04/06 06:42:25;;;;;;;;;;;;;;;9.14;100.00;99258.69;5116094;28;19916;-78
2022/04/06 06:44:58;;;;;;;;;;;;;;;9.10;100.00;99246.34;5133927;28;20293;-79
2022/04/06 06:47:23;;;;;;;;;;;;;;;9.11;100.00;99249.00;5115655;28;19918;-79
2022/04/06 06:49:48;;;;;;;;;;;;;;;9.10;100.00;99251.63;5115903;28;20010;-79
2022/04/06 06:52:14;;;;;;;;;;;;;;;9.06;100.00;99247.16;5115208;28;20093;-79
2022/04/06 06:54:43;;;;;;;;;;;;;;;9.11;100.00;99233.25;5115453;28;20019;-79
2022/04/06 06:57:11;;;;;;;;;;;;;;;9.07;100.00;99223.53;5115769;28;20264;-79
2022/04/06 06:59:36;;;;;;;;;;;;;;;9.09;100.00;99220.94;5115432;28;19960;-79
2022/04/06 07:02:02;;;;;;;;;;;;;;;9.13;100.00;99188.63;5115171;28;19915;-79
2022/04/06 07:04:28;;;;;;;;;;;;;;;9.03;100.00;99181.50;5133412;28;19916;-78
2022/04/06 07:06:53;;;;;;;;;;;;;;;8.90;100.00;99141.03;5115287;28;19916;-79
2022/04/06 07:09:18;;;;;;;;;;;;;;;8.86;100.00;99110.38;5115987;28;19923;-79
2022/04/06 07:11:44;;;;;;;;;;;;;;;8.81;100.00;99081.41;5098814;28;19920;-79
2022/04/06 07:14:18;;;;;;;;;;;;;;;8.79;100.00;99060.41;5130621;28;20007;-77
2022/04/06 07:16:43;;;;;;;;;;;;;;;8.75;100.00;99039.34;5095811;28;20287;-78
2022/04/06 07:19:09;;;;;;;;;;;;;;;8.67;100.00;99013.00;5095063;28;19944;-78
2022/04/06 07:21:34;;;;;;;;;;;;;;;8.67;100.00;98998.97;5091811;28;20018;-78
2022/04/06 07:24:01;;;;;;;;;;;;;;;8.68;100.00;98990.25;5115018;27;19923;-78
2022/04/06 07:26:27;;;;;;;;;;;;;;;8.68;100.00;98957.00;5127127;27;19923;-77
2022/04/06 07:28:52;;;;;;;;;;;;;;;8.72;100.00;98963.19;5116168;27;20006;-78
2022/04/06 07:31:18;;;;;;;;;;;;;;;8.73;100.00;98947.47;5119049;27;20336;-78
2022/04/06 07:33:44;;;;;;;;;;;;;;;8.76;100.00;98946.59;5101720;27;20386;-77
2022/04/06 07:36:09;;;;;;;;;;;;;;;8.76;100.00;98920.38;5118933;27;19919;-77
2022/04/06 07:38:35;;;;;;;;;;;;;;;8.68;100.00;98908.91;5118793;27;19964;-78
2022/04/06 07:41:01;;;;;;;;;;;;;;;8.51;100.00;98903.44;5117663;27;20128;-77
2022/04/06 07:43:27;;;;;;;;;;;;;;;8.48;100.00;98872.78;5118014;27;19916;-77
2022/04/06 07:45:57;;;;;;;;;;;;;;;8.50;100.00;98844.84;5118739;27;20371;-78
2022/04/06 07:48:26;;;;;;;;;;;;;;;8.51;100.00;98828.22;5131662;27;20433;-78
2022/04/06 07:50:53;;;;;;;;;;;;;;;8.40;100.00;98801.84;5118558;27;19923;-78
2022/04/06 07:53:21;;;;;;;;;;;;;;;8.47;100.00;98770.47;5118194;27;19915;-78
2022/04/06 07:55:50;;;;;;;;;;;;;;;8.51;100.00;98749.53;5136722;27;19923;-77
2022/04/06 07:58:18;;;;;;;;;;;;;;;8.52;100.00;98717.22;5118086;27;19945;-78
2022/04/06 08:00:44;;;;;;;;;;;;;;;8.60;100.00;98705.03;5118626;27;20345;-78
2022/04/06 08:03:10;;;;;;;;;;;;;;;8.63;100.00;98685.84;5117244;27;19919;-78
2022/04/06 08:05:35;;;;;;;;;;;;;;;8.68;100.00;98664.88;5117905;27;19959;-78
2022/04/06 08:08:01;;;;;;;;;;;;;;;8.67;100.00;98658.78;5117698;27;19923;-79
2022/04/06 08:10:30;;;;;;;;;;;;;;;8.67;100.00;98647.38;5135818;27;19915;-78
2022/04/06 08:12:57;;;;;;;;;;;;;;;8.73;100.00;98643.06;5117050;27;20260;-78
2022/04/06 08:15:22;;;;;;;;;;;;;;;8.75;100.00;98636.09;5135358;27;20014;-79
2022/04/06 08:17:48;;;;;;;;;;;;;;;8.78;100.00;98630.00;5117936;27;19962;-78
2022/04/06 08:20:15;;;;;;;;;;;;;;;8.76;100.00;98615.97;5118318;27;19915;-79
2022/04/06 08:22:41;;;;;;;;;;;;;;;8.80;100.00;98617.75;5118213;27;19921;-78
2022/04/06 08:25:06;;;;;;;;;;;;;;;8.82;100.00;98613.38;5100027;27;19920;-78
2022/04/06 08:27:32;;;;;;;;;;;;;;;8.78;100.00;98619.50;5116678;27;19922;-79
2022/04/06 08:29:58;;;;;;;;;;;;;;;8.78;100.00;98612.50;5116962;27;19941;-78
2022/04/06 08:32:23;;;;;;;;;;;;;;;8.72;100.00;98611.56;5137994;27;19922;-78
2022/04/06 08:34:48;;;;;;;;;;;;;;;8.70;100.00;98592.28;5119878;27;20306;-78
2022/04/06 08:37:14;;;;;;;;;;;;;;;8.75;100.00;98580.13;5119010;27;19916;-78
2022/04/06 08:39:39;;;;;;;;;;;;;;;8.65;100.00;98568.66;5117915;27;19915;-78
2022/04/06 08:42:04;;;;;;;;;;;;;;;8.61;100.00;98545.91;5116308;27;20015;-78
2022/04/06 08:44:30;;;;;;;;;;;;;;;8.66;100.00;98532.81;5117019;27;19915;-79
2022/04/06 08:46:58;;;;;;;;;;;;;;;8.56;100.00;98513.50;5116831;27;19920;-79
2022/04/06 08:49:24;;;;;;;;;;;;;;;8.48;100.00;98488.97;5117231;27;20375;-78
2022/04/06 08:51:52;;;;;;;;;;;;;;;8.58;100.00;98451.44;5116855;27;19923;-78
2022/04/06 08:54:17;;;;;;;;;;;;;;;8.58;100.00;98420.84;5116161;27;19916;-78
2022/04/06 08:56:43;;;;;;;;;;;;;;;8.50;100.00;98404.19;5116794;27;19968;-78
2022/04/06 08:59:08;;;;;;;;;;;;;;;8.53;100.00;98374.47;5115634;27;20268;-78
2022/04/06 09:01:34;;;;;;;;;;;;;;;8.58;100.00;98357.88;5116592;27;19956;-79
2022/04/06 09:04:00;;;;;;;;;;;;;;;8.62;100.00;98345.63;5115938;27;20299;-78
2022/04/06 09:06:29;;;;;;;;;;;;;;;8.66;100.00;98330.81;5116091;27;19912;-78
2022/04/06 09:08:54;;;;;;;;;;;;;;;8.65;100.00;98300.19;5134904;27;19915;-78
2022/04/06 09:11:20;;;;;;;;;;;;;;;8.61;100.00;98302.81;5134725;27;20439;-78
2022/04/06 09:13:48;;;;;;;;;;;;;;;8.67;100.00;98285.31;5115374;27;19922;-78
2022/04/06 09:16:17;;;;;;;;;;;;;;;8.61;100.00;98292.31;5116105;27;19927;-78
2022/04/06 09:18:46;;;;;;;;;;;;;;;8.70;100.00;98262.63;5134416;27;19916;-78
2022/04/06 09:21:16;;;;;;;;;;;;;;;8.75;100.00;98260.88;5115711;27;20014;-78
2022/04/06 09:23:43;;;;;;;;;;;;;;;8.74;100.00;98256.47;5116141;27;19919;-79
2022/04/06 09:26:11;;;;;;;;;;;;;;;8.75;100.00;98246.88;5134184;27;19919;-78
2022/04/06 09:28:44;;;;;;;;;;;;;;;8.75;100.00;98232.00;5116565;27;20359;-78
2022/04/06 09:31:13;;;;;;;;;;;;;;;8.86;100.00;98226.75;5134568;27;19930;-78
2022/04/06 09:33:41;;;;;;;;;;;;;;;9.01;100.00;98225.00;5116012;27;20433;-78
2022/04/06 09:36:19;;;;;;;;;;;;;;;9.06;100.00;98221.53;5100978;28;20022;-78
2022/04/06 09:38:49;;;;;;;;;;;;;;;9.19;100.00;98217.13;5113663;28;19994;-77
2022/04/06 09:41:15;;;;;;;;;;;;;;;9.15;100.00;98226.78;5125873;27;19965;-77
2022/04/06 09:43:40;;;;;;;;;;;;;;;9.17;100.00;98232.03;5133375;27;19926;-78
2022/04/06 09:49:08;;;;;;;;;;;;;;;9.24;100.00;98244.25;5113410;28;19922;-78
2022/04/06 09:51:34;;;;;;;;;;;;;;;9.27;100.00;98259.16;5096164;28;19915;-79
2022/04/06 09:54:03;;;;;;;;;;;;;;;9.34;100.00;98259.16;5113471;28;19922;-79
2022/04/06 09:56:30;;;;;;;;;;;;;;;9.45;100.00;98260.91;5095779;28;19920;-79
2022/04/06 09:58:56;;;;;;;;;;;;;;;9.59;100.00;98271.41;5078880;28;19920;-77
2022/04/06 10:01:22;;;;;;;;;;;;;;;9.66;100.00;98284.53;5095710;28;20007;-77
2022/04/06 10:04:07;;;;;;;;;;;;;;;9.61;100.00;98309.91;5095512;28;20010;-79
2022/04/06 10:06:36;;;;;;;;;;;;;;;9.67;100.00;98325.66;5103231;27;19972;-79
2022/04/06 10:09:06;;;;;;;;;;;;;;;9.65;100.00;98342.34;5134027;27;19985;-79
2022/04/06 10:11:33;;;;;;;;;;;;;;;9.74;100.00;98344.97;5115523;27;19919;-79
2022/04/06 10:14:01;;;;;;;;;;;;;;;9.95;100.00;98359.81;5115433;27;20010;-78
2022/04/06 10:16:26;;;;;;;;;;;;;;;10.33;100.00;98352.75;5099850;28;19920;-79
2022/04/06 10:18:52;;;;;;;;;;;;;;;10.66;100.00;98366.66;5095284;28;20045;-78
2022/04/06 10:21:41;;;;;;;;;;;;;;;10.67;100.00;98411.38;5110328;27;20134;-79
2022/04/06 10:24:26;;;;;;;;;;;;;;;10.75;100.00;98446.47;5115501;28;19961;-79
2022/04/06 10:27:04;;;;;;;;;;;;;;;10.52;100.00;98486.00;5108676;28;20167;-79
2022/04/06 10:29:29;;;;;;;;;;;;;;;10.39;100.00;98535.13;5094991;28;19916;-78
2022/04/06 10:31:55;;;;;;;;;;;;;;;10.34;100.00;98554.41;5077416;28;19923;-77
2022/04/06 10:34:37;;;;;;;;;;;;;;;10.36;100.00;98576.34;5094468;28;20252;-79
2022/04/06 10:37:12;;;;;;;;;;;;;;;10.34;100.00;98596.50;5094438;28;19927;-76
2022/04/06 10:39:59;;;;;;;;;;;;;;;10.24;100.00;98601.72;5116377;27;19915;-76
2022/04/06 10:42:27;;;;;;;;;;;;;;;10.23;100.00;98607.84;5113743;28;19919;-76
2022/04/06 10:45:03;;;;;;;;;;;;;;;10.35;100.00;98619.31;5115279;28;19927;-78
2022/04/06 10:47:31;;;;;;;;;;;;;;;10.36;100.00;98621.06;5134222;28;19915;-74
2022/04/06 10:50:13;;;;;;;;;;;;;;;10.37;100.00;98638.59;5116319;28;19931;-81
2022/04/06 10:52:43;;;;;;;;;;;;;;;10.39;100.00;98648.28;5107872;28;19972;-81
2022/04/06 10:55:24;;;;;;;;;;;;;;;10.64;100.00;98643.00;5116466;28;19957;-81
2022/04/06 10:58:00;;;;;;;;;;;;;;;10.87;100.00;98650.03;5116564;28;19961;-81
2022/04/06 11:00:26;;;;;;;;;;;;;;;11.09;100.00;98670.22;5119911;27;19960;-80
2022/04/06 11:02:52;;;;;;;;;;;;;;;11.22;100.00;98686.88;5138418;27;20010;-80
2022/04/06 11:05:36;;;;;;;;;;;;;;;11.14;100.00;98721.13;5120253;27;19920;-79
2022/04/06 11:11:28;;;;;;;;;;;;;;;11.23;100.00;98770.31;5043146;28;19917;-79
2022/04/06 11:13:55;;;;;;;;;;;;;;;11.27;100.00;98776.44;5050906;28;19945;-79
2022/04/06 11:16:39;;;;;;;;;;;;;;;11.19;100.00;98779.09;5088891;27;20006;-80
2022/04/06 11:19:04;;;;;;;;;;;;;;;11.03;100.00;98778.19;5119711;27;20022;-79
2022/04/06 11:21:31;;;;;;;;;;;;;;;11.00;100.00;98793.09;5119570;27;20066;-79
2022/04/06 11:24:00;;;;;;;;;;;;;;;10.68;100.00;98784.28;5119276;27;19920;-79
2022/04/06 11:26:26;;;;;;;;;;;;;;;10.55;100.00;98770.22;5134508;27;20242;-79
2022/04/06 11:28:58;;;;;;;;;;;;;;;10.44;100.00;98753.53;5118553;27;19930;-78
2022/04/06 11:31:24;;;;;;;;;;;;;;;10.32;100.00;98735.91;5113332;27;19919;-78
2022/04/06 11:33:49;;;;;;;;;;;;;;;10.29;100.00;98714.84;5118429;27;19960;-78
2022/04/06 11:36:15;;;;;;;;;;;;;;;10.25;100.00;98707.81;5137029;27;20334;-78
2022/04/06 11:38:40;;;;;;;;;;;;;;;10.32;100.00;98693.81;5138086;27;19916;-79
2022/04/06 11:41:06;;;;;;;;;;;;;;;10.23;100.00;98664.84;5118516;27;19946;-79
2022/04/06 11:43:31;;;;;;;;;;;;;;;10.16;100.00;98656.06;5105788;28;19927;-78
2022/04/06 11:45:59;;;;;;;;;;;;;;;10.24;100.00;98641.19;5107375;27;20359;-78
2022/04/06 11:48:43;;;;;;;;;;;;;;;10.27;100.00;98657.84;5131447;27;19925;-80
2022/04/06 11:51:09;;;;;;;;;;;;;;;10.36;100.00;98653.53;5093197;28;19920;-80
2022/04/06 11:53:36;;;;;;;;;;;;;;;10.44;100.00;98650.00;5088763;28;19995;-79
2022/04/06 11:56:02;;;;;;;;;;;;;;;10.33;100.00;98644.72;5122976;28;19927;-79
2022/04/06 11:58:31;;;;;;;;;;;;;;;10.15;100.00;98628.00;5090602;28;20369;-80
2022/04/06 12:01:00;;;;;;;;;;;;;;;9.97;100.00;98597.28;5090153;28;19921;-79
2022/04/06 12:03:30;;;;;;;;;;;;;;;9.99;100.00;98574.53;5101813;28;19924;-80
2022/04/06 12:05:55;;;;;;;;;;;;;;;9.93;100.00;98540.34;5088820;28;20291;-80
2022/04/06 12:08:20;;;;;;;;;;;;;;;9.79;100.00;98518.38;5098068;28;19921;-80
2022/04/06 12:10:46;;;;;;;;;;;;;;;9.72;100.00;98493.84;5088604;28;20284;-80
2022/04/06 12:13:14;;;;;;;;;;;;;;;9.61;100.00;98461.44;5090320;28;19921;-79
2022/04/06 12:15:40;;;;;;;;;;;;;;;9.63;100.00;98429.03;5090194;28;20054;-80
2022/04/06 12:18:06;;;;;;;;;;;;;;;9.62;100.00;98408.88;5089003;28;19917;-80
2022/04/06 12:20:32;;;;;;;;;;;;;;;9.64;100.00;98367.72;5088965;28;20031;-81
2022/04/06 12:23:10;;;;;;;;;;;;;;;9.56;100.00;98358.97;5088346;28;20360;-82
2022/04/06 12:25:36;;;;;;;;;;;;;;;9.48;100.00;98334.44;5123244;28;19923;-81
2022/04/06 12:28:25;;;;;;;;;;;;;;;9.45;100.00;98310.81;5088220;28;20288;-81
2022/04/06 12:31:19;;;;;;;;;;;;;;;9.44;100.00;98260.00;5085577;28;20369;-79
2022/04/06 12:33:49;;;;;;;;;;;;;;;9.57;100.00;98216.22;5084326;28;19919;-79
2022/04/06 12:36:14;;;;;;;;;;;;;;;9.54;100.00;98213.59;5122914;28;19923;-81
2022/04/06 12:38:40;;;;;;;;;;;;;;;9.64;100.00;98194.28;5090166;28;19995;-81
2022/04/06 12:41:13;;;;;;;;;;;;;;;9.69;100.00;98174.16;5088854;28;19918;-81
2022/04/06 12:43:45;;;;;;;;;;;;;;;9.73;100.00;98171.50;5089097;28;20303;-80
2022/04/06 12:46:11;;;;;;;;;;;;;;;9.77;100.00;98174.13;5088869;28;20264;-81
2022/04/06 12:48:37;;;;;;;;;;;;;;;9.77;100.00;98171.50;5088515;28;19920;-81
2022/04/06 12:51:21;;;;;;;;;;;;;;;9.78;100.00;98185.50;5122138;28;19924;-80
2022/04/06 12:53:51;;;;;;;;;;;;;;;9.76;100.00;98179.38;5115366;28;19925;-79
2022/04/06 12:56:23;;;;;;;;;;;;;;;9.77;100.00;98179.38;5078012;28;19924;-80
2022/04/06 12:59:08;;;;;;;;;;;;;;;9.82;100.00;98179.34;5083083;28;19970;-81